sensor_id;sensor_type;location;lat;lon;timestamp;temperature;humidity
21108;DHT22;10712;52.944;9.098;2023-03-13T00:01:10;7.50;94.30
21108;DHT22;10712;52.944;9.098;2023-03-13T00:03:38;7.60;94.30
21108;DHT22;10712;52.944;9.098;2023-03-13T00:06:04;7.60;94.30
21108;DHT22;10712;52.944;9.098;2023-03-13T00:08:30;7.60;94.30
21108;DHT22;10712;52.944;9.098;2023-03-13T00:10:56;7.70;94.30
21108;DHT22;10712;52.944;9.098;2023-03-13T00:13:22;7.70;94.30
21108;DHT22;10712;52.944;9.098;2023-03-13T00:15:48;7.70;94.30
21108;DHT22;10712;52.944;9.098;2023-03-13T00:18:14;7.70;94.30
21108;DHT22;10712;52.944;9.098;2023-03-13T00:20:39;7.70;94.30
21108;DHT22;10712;52.944;9.098;2023-03-13T00:23:06;7.70;94.30
21108;DHT22;10712;52.944;9.098;2023-03-13T00:25:32;7.70;94.30
21108;DHT22;10712;52.944;9.098;2023-03-13T00:27:58;7.70;94.10
21108;DHT22;10712;52.944;9.098;2023-03-13T00:30:24;7.70;94.00
21108;DHT22;10712;52.944;9.098;2023-03-13T00:32:50;7.70;93.90
21108;DHT22;10712;52.944;9.098;2023-03-13T00:35:16;7.70;93.90
21108;DHT22;10712;52.944;9.098;2023-03-13T00:37:42;7.70;93.90
21108;DHT22;10712;52.944;9.098;2023-03-13T00:40:08;7.70;93.80
21108;DHT22;10712;52.944;9.098;2023-03-13T00:42:35;7.70;93.70
21108;DHT22;10712;52.944;9.098;2023-03-13T00:45:01;7.70;93.70
21108;DHT22;10712;52.944;9.098;2023-03-13T00:47:27;7.70;93.60
21108;DHT22;10712;52.944;9.098;2023-03-13T00:49:53;7.70;93.60
21108;DHT22;10712;52.944;9.098;2023-03-13T00:52:19;7.70;93.50
21108;DHT22;10712;52.944;9.098;2023-03-13T00:54:44;7.70;93.50
21108;DHT22;10712;52.944;9.098;2023-03-13T00:57:10;7.70;93.50
21108;DHT22;10712;52.944;9.098;2023-03-13T00:59:36;7.70;93.40
21108;DHT22;10712;52.944;9.098;2023-03-13T01:02:02;7.80;93.40
21108;DHT22;10712;52.944;9.098;2023-03-13T01:04:28;7.70;93.30
21108;DHT22;10712;52.944;9.098;2023-03-13T01:06:55;7.70;93.40
21108;DHT22;10712;52.944;9.098;2023-03-13T01:09:21;7.80;93.30
21108;DHT22;10712;52.944;9.098;2023-03-13T01:11:47;7.80;93.30
21108;DHT22;10712;52.944;9.098;2023-03-13T01:14:16;7.80;93.30
21108;DHT22;10712;52.944;9.098;2023-03-13T01:16:43;7.80;93.30
21108;DHT22;10712;52.944;9.098;2023-03-13T01:19:11;7.80;93.30
21108;DHT22;10712;52.944;9.098;2023-03-13T01:21:39;7.80;93.30
21108;DHT22;10712;52.944;9.098;2023-03-13T01:24:07;7.80;93.20
21108;DHT22;10712;52.944;9.098;2023-03-13T01:26:33;7.80;93.20
21108;DHT22;10712;52.944;9.098;2023-03-13T01:28:59;7.80;93.30
21108;DHT22;10712;52.944;9.098;2023-03-13T01:31:33;7.80;93.30
21108;DHT22;10712;52.944;9.098;2023-03-13T01:34:03;7.80;93.30
21108;DHT22;10712;52.944;9.098;2023-03-13T01:36:30;7.80;93.40
21108;DHT22;10712;52.944;9.098;2023-03-13T01:38:58;7.80;93.50
21108;DHT22;10712;52.944;9.098;2023-03-13T01:41:26;7.80;93.60
21108;DHT22;10712;52.944;9.098;2023-03-13T01:43:53;7.90;93.60
21108;DHT22;10712;52.944;9.098;2023-03-13T01:46:22;7.90;93.60
21108;DHT22;10712;52.944;9.098;2023-03-13T01:49:08;8.00;93.40
21108;DHT22;10712;52.944;9.098;2023-03-13T01:54:21;8.00;93.30
21108;DHT22;10712;52.944;9.098;2023-03-13T01:57:00;8.00;93.20
21108;DHT22;10712;52.944;9.098;2023-03-13T01:59:47;8.00;93.20
21108;DHT22;10712;52.944;9.098;2023-03-13T02:02:17;8.00;93.20
21108;DHT22;10712;52.944;9.098;2023-03-13T02:04:46;8.00;93.40
21108;DHT22;10712;52.944;9.098;2023-03-13T02:07:21;8.00;93.30
21108;DHT22;10712;52.944;9.098;2023-03-13T02:09:53;8.10;93.30
21108;DHT22;10712;52.944;9.098;2023-03-13T02:12:33;8.10;93.30
21108;DHT22;10712;52.944;9.098;2023-03-13T02:17:35;8.10;93.30
21108;DHT22;10712;52.944;9.098;2023-03-13T02:20:04;8.10;93.20
21108;DHT22;10712;52.944;9.098;2023-03-13T02:27:34;8.10;93.10
21108;DHT22;10712;52.944;9.098;2023-03-13T02:30:00;8.20;93.00
21108;DHT22;10712;52.944;9.098;2023-03-13T02:32:28;8.20;93.00
21108;DHT22;10712;52.944;9.098;2023-03-13T02:34:58;8.20;92.90
21108;DHT22;10712;52.944;9.098;2023-03-13T02:37:29;8.20;92.80
21108;DHT22;10712;52.944;9.098;2023-03-13T02:40:01;8.20;92.70
21108;DHT22;10712;52.944;9.098;2023-03-13T02:42:31;8.30;92.70
21108;DHT22;10712;52.944;9.098;2023-03-13T02:44:57;8.30;92.60
21108;DHT22;10712;52.944;9.098;2023-03-13T02:47:24;8.30;92.60
21108;DHT22;10712;52.944;9.098;2023-03-13T02:49:51;8.20;92.60
21108;DHT22;10712;52.944;9.098;2023-03-13T02:52:20;8.30;92.80
21108;DHT22;10712;52.944;9.098;2023-03-13T02:54:55;8.20;92.80
21108;DHT22;10712;52.944;9.098;2023-03-13T02:57:27;8.20;92.80
21108;DHT22;10712;52.944;9.098;2023-03-13T02:59:54;8.30;92.90
21108;DHT22;10712;52.944;9.098;2023-03-13T03:02:20;8.30;92.70
21108;DHT22;10712;52.944;9.098;2023-03-13T03:04:47;8.30;92.70
21108;DHT22;10712;52.944;9.098;2023-03-13T03:07:13;8.30;92.90
21108;DHT22;10712;52.944;9.098;2023-03-13T03:09:39;8.30;93.00
21108;DHT22;10712;52.944;9.098;2023-03-13T03:12:09;8.30;93.10
21108;DHT22;10712;52.944;9.098;2023-03-13T03:14:35;8.30;93.10
21108;DHT22;10712;52.944;9.098;2023-03-13T03:17:02;8.30;93.20
21108;DHT22;10712;52.944;9.098;2023-03-13T03:19:28;8.30;93.30
21108;DHT22;10712;52.944;9.098;2023-03-13T03:21:54;8.30;93.30
21108;DHT22;10712;52.944;9.098;2023-03-13T03:24:19;8.30;93.30
21108;DHT22;10712;52.944;9.098;2023-03-13T03:26:45;8.30;93.50
21108;DHT22;10712;52.944;9.098;2023-03-13T03:29:19;8.30;93.60
21108;DHT22;10712;52.944;9.098;2023-03-13T03:31:48;8.30;93.70
21108;DHT22;10712;52.944;9.098;2023-03-13T03:34:14;8.30;93.70
21108;DHT22;10712;52.944;9.098;2023-03-13T03:36:39;8.20;93.90
21108;DHT22;10712;52.944;9.098;2023-03-13T03:39:06;8.20;94.00
21108;DHT22;10712;52.944;9.098;2023-03-13T03:41:31;8.20;94.00
21108;DHT22;10712;52.944;9.098;2023-03-13T03:43:58;8.20;94.20
21108;DHT22;10712;52.944;9.098;2023-03-13T03:46:30;8.20;94.30
21108;DHT22;10712;52.944;9.098;2023-03-13T03:48:56;8.20;94.30
21108;DHT22;10712;52.944;9.098;2023-03-13T03:51:23;8.20;94.30
21108;DHT22;10712;52.944;9.098;2023-03-13T03:53:49;8.20;94.30
21108;DHT22;10712;52.944;9.098;2023-03-13T03:56:15;8.20;94.30
21108;DHT22;10712;52.944;9.098;2023-03-13T03:58:46;8.20;94.30
21108;DHT22;10712;52.944;9.098;2023-03-13T04:01:17;8.30;94.30
21108;DHT22;10712;52.944;9.098;2023-03-13T04:03:42;8.30;94.30
21108;DHT22;10712;52.944;9.098;2023-03-13T04:06:09;8.30;94.30
21108;DHT22;10712;52.944;9.098;2023-03-13T04:08:35;8.30;94.30
21108;DHT22;10712;52.944;9.098;2023-03-13T04:11:01;8.30;94.30
21108;DHT22;10712;52.944;9.098;2023-03-13T04:13:30;8.30;94.30
21108;DHT22;10712;52.944;9.098;2023-03-13T04:15:57;8.40;94.30
21108;DHT22;10712;52.944;9.098;2023-03-13T04:18:23;8.40;94.30
21108;DHT22;10712;52.944;9.098;2023-03-13T04:20:49;8.40;94.30
21108;DHT22;10712;52.944;9.098;2023-03-13T04:23:15;8.50;94.30
21108;DHT22;10712;52.944;9.098;2023-03-13T04:25:41;8.50;94.30
21108;DHT22;10712;52.944;9.098;2023-03-13T04:28:10;8.50;94.30
21108;DHT22;10712;52.944;9.098;2023-03-13T04:30:40;8.50;94.30
21108;DHT22;10712;52.944;9.098;2023-03-13T04:33:25;8.50;94.30
21108;DHT22;10712;52.944;9.098;2023-03-13T04:36:10;8.50;94.30
21108;DHT22;10712;52.944;9.098;2023-03-13T04:38:54;8.50;94.30
21108;DHT22;10712;52.944;9.098;2023-03-13T04:41:52;8.50;94.30
21108;DHT22;10712;52.944;9.098;2023-03-13T04:44:32;8.60;94.30
21108;DHT22;10712;52.944;9.098;2023-03-13T04:47:10;8.60;94.30
21108;DHT22;10712;52.944;9.098;2023-03-13T04:49:54;8.60;94.30
21108;DHT22;10712;52.944;9.098;2023-03-13T04:52:55;8.60;94.30
21108;DHT22;10712;52.944;9.098;2023-03-13T04:55:32;8.60;94.30
21108;DHT22;10712;52.944;9.098;2023-03-13T04:58:07;8.70;94.30
21108;DHT22;10712;52.944;9.098;2023-03-13T05:00:39;8.70;94.30
21108;DHT22;10712;52.944;9.098;2023-03-13T05:03:14;8.70;94.30
21108;DHT22;10712;52.944;9.098;2023-03-13T05:05:57;8.70;94.30
21108;DHT22;10712;52.944;9.098;2023-03-13T05:08:52;8.70;94.30
21108;DHT22;10712;52.944;9.098;2023-03-13T05:11:27;8.70;94.30
21108;DHT22;10712;52.944;9.098;2023-03-13T05:13:53;8.80;94.30
21108;DHT22;10712;52.944;9.098;2023-03-13T05:16:29;8.80;94.30
21108;DHT22;10712;52.944;9.098;2023-03-13T05:19:11;8.90;94.30
21108;DHT22;10712;52.944;9.098;2023-03-13T05:21:56;8.90;94.30
21108;DHT22;10712;52.944;9.098;2023-03-13T05:24:40;8.90;94.30
21108;DHT22;10712;52.944;9.098;2023-03-13T05:27:20;8.90;94.30
21108;DHT22;10712;52.944;9.098;2023-03-13T05:30:12;8.90;94.30
21108;DHT22;10712;52.944;9.098;2023-03-13T05:32:58;8.90;94.30
21108;DHT22;10712;52.944;9.098;2023-03-13T05:35:51;8.90;94.30
21108;DHT22;10712;52.944;9.098;2023-03-13T05:38:35;8.90;94.30
21108;DHT22;10712;52.944;9.098;2023-03-13T05:41:18;8.90;94.30
21108;DHT22;10712;52.944;9.098;2023-03-13T05:44:06;9.00;94.30
21108;DHT22;10712;52.944;9.098;2023-03-13T05:46:52;9.00;94.30
21108;DHT22;10712;52.944;9.098;2023-03-13T05:49:36;9.00;94.30
21108;DHT22;10712;52.944;9.098;2023-03-13T05:52:21;9.10;94.30
21108;DHT22;10712;52.944;9.098;2023-03-13T05:55:07;9.10;94.30
21108;DHT22;10712;52.944;9.098;2023-03-13T05:57:56;9.10;94.30
21108;DHT22;10712;52.944;9.098;2023-03-13T06:00:42;9.10;94.30
21108;DHT22;10712;52.944;9.098;2023-03-13T06:03:27;9.10;94.30
21108;DHT22;10712;52.944;9.098;2023-03-13T06:05:58;9.20;94.30
21108;DHT22;10712;52.944;9.098;2023-03-13T06:08:35;9.20;94.30
21108;DHT22;10712;52.944;9.098;2023-03-13T06:11:01;9.20;94.30
21108;DHT22;10712;52.944;9.098;2023-03-13T06:13:28;9.30;94.30
21108;DHT22;10712;52.944;9.098;2023-03-13T06:15:59;9.30;94.30
21108;DHT22;10712;52.944;9.098;2023-03-13T06:18:44;9.30;94.30
21108;DHT22;10712;52.944;9.098;2023-03-13T06:21:10;9.30;94.30
21108;DHT22;10712;52.944;9.098;2023-03-13T06:23:36;9.30;94.30
21108;DHT22;10712;52.944;9.098;2023-03-13T06:26:02;9.30;94.30
21108;DHT22;10712;52.944;9.098;2023-03-13T06:28:28;9.30;94.30
21108;DHT22;10712;52.944;9.098;2023-03-13T06:30:54;9.40;94.30
21108;DHT22;10712;52.944;9.098;2023-03-13T06:33:26;9.40;94.30
21108;DHT22;10712;52.944;9.098;2023-03-13T06:35:51;9.40;94.30
21108;DHT22;10712;52.944;9.098;2023-03-13T06:38:17;9.30;94.30
21108;DHT22;10712;52.944;9.098;2023-03-13T06:40:43;9.40;94.30
21108;DHT22;10712;52.944;9.098;2023-03-13T06:43:09;9.40;94.30
21108;DHT22;10712;52.944;9.098;2023-03-13T06:45:35;9.50;94.30
21108;DHT22;10712;52.944;9.098;2023-03-13T06:48:02;9.60;94.30
21108;DHT22;10712;52.944;9.098;2023-03-13T06:50:29;9.60;94.30
21108;DHT22;10712;52.944;9.098;2023-03-13T06:52:55;9.60;94.30
21108;DHT22;10712;52.944;9.098;2023-03-13T06:55:22;9.60;94.30
21108;DHT22;10712;52.944;9.098;2023-03-13T06:57:50;9.60;94.30
21108;DHT22;10712;52.944;9.098;2023-03-13T07:00:17;9.70;94.30
21108;DHT22;10712;52.944;9.098;2023-03-13T07:02:44;9.70;94.30
21108;DHT22;10712;52.944;9.098;2023-03-13T07:05:10;9.70;94.30
21108;DHT22;10712;52.944;9.098;2023-03-13T07:07:35;9.80;94.30
21108;DHT22;10712;52.944;9.098;2023-03-13T07:10:02;9.80;94.30
21108;DHT22;10712;52.944;9.098;2023-03-13T07:12:28;9.90;94.30
21108;DHT22;10712;52.944;9.098;2023-03-13T07:14:54;9.90;94.30
21108;DHT22;10712;52.944;9.098;2023-03-13T07:17:19;10.00;94.30
21108;DHT22;10712;52.944;9.098;2023-03-13T07:19:45;10.00;94.30
21108;DHT22;10712;52.944;9.098;2023-03-13T07:22:11;10.10;94.30
21108;DHT22;10712;52.944;9.098;2023-03-13T07:24:37;10.10;94.30
21108;DHT22;10712;52.944;9.098;2023-03-13T07:27:03;10.20;94.30
21108;DHT22;10712;52.944;9.098;2023-03-13T07:29:28;10.20;94.30
21108;DHT22;10712;52.944;9.098;2023-03-13T07:31:54;10.30;94.30
21108;DHT22;10712;52.944;9.098;2023-03-13T07:34:20;10.30;94.30
21108;DHT22;10712;52.944;9.098;2023-03-13T07:36:46;10.30;94.30
21108;DHT22;10712;52.944;9.098;2023-03-13T07:39:11;10.40;94.30
21108;DHT22;10712;52.944;9.098;2023-03-13T07:41:38;10.40;94.30
21108;DHT22;10712;52.944;9.098;2023-03-13T07:44:05;10.40;94.30
21108;DHT22;10712;52.944;9.098;2023-03-13T07:46:30;10.40;94.30
21108;DHT22;10712;52.944;9.098;2023-03-13T07:48:56;10.50;94.30
21108;DHT22;10712;52.944;9.098;2023-03-13T07:51:24;10.50;94.30
21108;DHT22;10712;52.944;9.098;2023-03-13T07:53:52;10.60;94.30
21108;DHT22;10712;52.944;9.098;2023-03-13T07:56:22;10.70;94.30
21108;DHT22;10712;52.944;9.098;2023-03-13T07:58:49;10.70;94.30
21108;DHT22;10712;52.944;9.098;2023-03-13T08:01:20;10.70;94.30
21108;DHT22;10712;52.944;9.098;2023-03-13T08:03:48;10.80;94.30
21108;DHT22;10712;52.944;9.098;2023-03-13T08:06:17;10.80;94.30
21108;DHT22;10712;52.944;9.098;2023-03-13T08:08:45;10.90;94.30
21108;DHT22;10712;52.944;9.098;2023-03-13T08:11:16;10.90;94.30
21108;DHT22;10712;52.944;9.098;2023-03-13T08:13:45;10.90;94.30
21108;DHT22;10712;52.944;9.098;2023-03-13T08:16:14;11.00;94.30
21108;DHT22;10712;52.944;9.098;2023-03-13T08:18:43;11.00;94.30
21108;DHT22;10712;52.944;9.098;2023-03-13T08:21:23;11.00;94.30
21108;DHT22;10712;52.944;9.098;2023-03-13T08:23:59;11.00;94.30
21108;DHT22;10712;52.944;9.098;2023-03-13T08:26:28;11.10;94.30
21108;DHT22;10712;52.944;9.098;2023-03-13T08:28:57;11.10;94.30
21108;DHT22;10712;52.944;9.098;2023-03-13T08:31:50;11.20;94.30
21108;DHT22;10712;52.944;9.098;2023-03-13T08:34:19;11.30;94.30
21108;DHT22;10712;52.944;9.098;2023-03-13T08:36:45;11.30;94.30
21108;DHT22;10712;52.944;9.098;2023-03-13T08:39:16;11.30;94.30
21108;DHT22;10712;52.944;9.098;2023-03-13T08:41:43;11.40;94.30
21108;DHT22;10712;52.944;9.098;2023-03-13T08:44:15;11.40;94.30
21108;DHT22;10712;52.944;9.098;2023-03-13T08:46:43;11.50;94.30
21108;DHT22;10712;52.944;9.098;2023-03-13T08:49:09;11.50;94.30
21108;DHT22;10712;52.944;9.098;2023-03-13T08:51:36;11.50;94.30
21108;DHT22;10712;52.944;9.098;2023-03-13T08:54:03;11.60;94.30
21108;DHT22;10712;52.944;9.098;2023-03-13T08:56:30;11.70;94.30
21108;DHT22;10712;52.944;9.098;2023-03-13T08:58:58;11.80;94.30
21108;DHT22;10712;52.944;9.098;2023-03-13T09:01:31;11.90;94.30
21108;DHT22;10712;52.944;9.098;2023-03-13T09:03:59;11.90;94.30
21108;DHT22;10712;52.944;9.098;2023-03-13T09:06:25;11.90;94.30
21108;DHT22;10712;52.944;9.098;2023-03-13T09:08:51;11.90;94.20
21108;DHT22;10712;52.944;9.098;2023-03-13T09:11:20;11.90;94.00
21108;DHT22;10712;52.944;9.098;2023-03-13T09:13:48;11.90;93.90
21108;DHT22;10712;52.944;9.098;2023-03-13T09:16:16;12.00;93.60
21108;DHT22;10712;52.944;9.098;2023-03-13T09:18:48;12.00;93.30
21108;DHT22;10712;52.944;9.098;2023-03-13T09:21:20;12.00;93.30
21108;DHT22;10712;52.944;9.098;2023-03-13T09:23:50;12.10;93.40
21108;DHT22;10712;52.944;9.098;2023-03-13T09:26:18;12.10;93.40
21108;DHT22;10712;52.944;9.098;2023-03-13T09:28:45;12.10;93.50
21108;DHT22;10712;52.944;9.098;2023-03-13T09:31:27;12.10;93.40
21108;DHT22;10712;52.944;9.098;2023-03-13T09:33:55;12.10;93.50
21108;DHT22;10712;52.944;9.098;2023-03-13T09:36:21;12.10;93.60
21108;DHT22;10712;52.944;9.098;2023-03-13T09:38:52;12.10;93.80
21108;DHT22;10712;52.944;9.098;2023-03-13T09:41:56;12.10;93.90
21108;DHT22;10712;52.944;9.098;2023-03-13T09:44:32;12.20;93.90
21108;DHT22;10712;52.944;9.098;2023-03-13T09:50:15;12.20;93.70
21108;DHT22;10712;52.944;9.098;2023-03-13T09:52:45;12.20;93.80
21108;DHT22;10712;52.944;9.098;2023-03-13T09:55:25;12.20;93.70
21108;DHT22;10712;52.944;9.098;2023-03-13T09:58:03;12.20;93.50
21108;DHT22;10712;52.944;9.098;2023-03-13T10:00:40;12.20;93.40
21108;DHT22;10712;52.944;9.098;2023-03-13T10:03:16;12.20;93.40
21108;DHT22;10712;52.944;9.098;2023-03-13T10:05:56;12.30;93.10
21108;DHT22;10712;52.944;9.098;2023-03-13T10:08:26;12.30;93.00
21108;DHT22;10712;52.944;9.098;2023-03-13T10:11:11;12.40;92.70
21108;DHT22;10712;52.944;9.098;2023-03-13T10:16:54;12.50;92.40
21108;DHT22;10712;52.944;9.098;2023-03-13T10:19:35;12.60;92.00
21108;DHT22;10712;52.944;9.098;2023-03-13T10:22:26;12.60;91.60
21108;DHT22;10712;52.944;9.098;2023-03-13T10:24:59;12.70;91.60
21108;DHT22;10712;52.944;9.098;2023-03-13T10:27:49;12.80;91.60
21108;DHT22;10712;52.944;9.098;2023-03-13T10:30:33;12.80;91.60
21108;DHT22;10712;52.944;9.098;2023-03-13T10:35:41;12.90;91.70
21108;DHT22;10712;52.944;9.098;2023-03-13T10:38:17;13.00;91.60
21108;DHT22;10712;52.944;9.098;2023-03-13T10:40:56;13.10;91.20
21108;DHT22;10712;52.944;9.098;2023-03-13T10:43:25;13.20;90.00
21108;DHT22;10712;52.944;9.098;2023-03-13T10:45:52;13.30;89.20
21108;DHT22;10712;52.944;9.098;2023-03-13T10:48:21;13.40;88.40
21108;DHT22;10712;52.944;9.098;2023-03-13T10:50:51;13.40;88.20
21108;DHT22;10712;52.944;9.098;2023-03-13T10:55:54;13.50;88.50
21108;DHT22;10712;52.944;9.098;2023-03-13T10:58:46;13.50;88.40
21108;DHT22;10712;52.944;9.098;2023-03-13T11:03:48;13.60;87.70
21108;DHT22;10712;52.944;9.098;2023-03-13T11:08:49;13.80;88.40
21108;DHT22;10712;52.944;9.098;2023-03-13T11:11:23;13.90;87.90
21108;DHT22;10712;52.944;9.098;2023-03-13T11:14:06;14.00;87.30
21108;DHT22;10712;52.944;9.098;2023-03-13T11:16:38;14.10;87.50
21108;DHT22;10712;52.944;9.098;2023-03-13T11:25:18;14.30;82.40
21108;DHT22;10712;52.944;9.098;2023-03-13T11:31:14;14.40;81.60
21108;DHT22;10712;52.944;9.098;2023-03-13T11:34:04;14.50;80.80
21108;DHT22;10712;52.944;9.098;2023-03-13T11:37:28;14.50;80.70
21108;DHT22;10712;52.944;9.098;2023-03-13T11:48:58;14.70;79.40
21108;DHT22;10712;52.944;9.098;2023-03-13T11:54:58;14.80;79.80
21108;DHT22;10712;52.944;9.098;2023-03-13T12:00:47;14.90;78.50
21108;DHT22;10712;52.944;9.098;2023-03-13T12:05:59;15.10;78.50
21108;DHT22;10712;52.944;9.098;2023-03-13T12:08:29;15.20;77.60
21108;DHT22;10712;52.944;9.098;2023-03-13T12:11:17;15.20;76.40
21108;DHT22;10712;52.944;9.098;2023-03-13T12:14:01;15.20;77.30
21108;DHT22;10712;52.944;9.098;2023-03-13T12:16:58;15.20;76.90
21108;DHT22;10712;52.944;9.098;2023-03-13T12:19:49;15.20;76.20
21108;DHT22;10712;52.944;9.098;2023-03-13T12:22:25;15.10;74.90
21108;DHT22;10712;52.944;9.098;2023-03-13T12:28:20;15.30;73.90
21108;DHT22;10712;52.944;9.098;2023-03-13T12:34:08;15.40;72.80
21108;DHT22;10712;52.944;9.098;2023-03-13T12:36:54;15.50;72.20
21108;DHT22;10712;52.944;9.098;2023-03-13T12:39:45;15.60;70.70
21108;DHT22;10712;52.944;9.098;2023-03-13T12:42:50;15.60;71.10
21108;DHT22;10712;52.944;9.098;2023-03-13T12:45:31;15.60;71.90
21108;DHT22;10712;52.944;9.098;2023-03-13T13:00:35;15.70;71.60
21108;DHT22;10712;52.944;9.098;2023-03-13T13:06:14;15.80;71.30
21108;DHT22;10712;52.944;9.098;2023-03-13T13:09:28;15.90;70.80
21108;DHT22;10712;52.944;9.098;2023-03-13T13:16:31;16.10;70.40
21108;DHT22;10712;52.944;9.098;2023-03-13T13:32:48;16.30;69.70
21108;DHT22;10712;52.944;9.098;2023-03-13T13:35:35;16.40;69.10
21108;DHT22;10712;52.944;9.098;2023-03-13T13:46:28;16.60;68.50
21108;DHT22;10712;52.944;9.098;2023-03-13T13:51:38;16.70;66.90
21108;DHT22;10712;52.944;9.098;2023-03-13T13:56:47;16.70;66.80
21108;DHT22;10712;52.944;9.098;2023-03-13T14:01:46;16.70;66.80
21108;DHT22;10712;52.944;9.098;2023-03-13T14:04:46;16.70;67.20
21108;DHT22;10712;52.944;9.098;2023-03-13T14:12:57;16.70;66.10
21108;DHT22;10712;52.944;9.098;2023-03-13T14:15:29;16.70;66.30
21108;DHT22;10712;52.944;9.098;2023-03-13T14:20:55;16.80;66.30
21108;DHT22;10712;52.944;9.098;2023-03-13T14:26:29;16.80;66.70
21108;DHT22;10712;52.944;9.098;2023-03-13T14:28:59;16.80;67.40
21108;DHT22;10712;52.944;9.098;2023-03-13T14:31:35;16.80;66.40
21108;DHT22;10712;52.944;9.098;2023-03-13T14:34:05;16.80;66.60
21108;DHT22;10712;52.944;9.098;2023-03-13T14:36:49;16.80;66.50
21108;DHT22;10712;52.944;9.098;2023-03-13T14:39:41;16.70;67.00
21108;DHT22;10712;52.944;9.098;2023-03-13T14:42:14;16.60;67.60
21108;DHT22;10712;52.944;9.098;2023-03-13T14:44:42;16.70;67.00
21108;DHT22;10712;52.944;9.098;2023-03-13T14:47:27;16.70;66.50
21108;DHT22;10712;52.944;9.098;2023-03-13T14:50:00;16.70;66.60
21108;DHT22;10712;52.944;9.098;2023-03-13T14:52:30;16.60;66.60
21108;DHT22;10712;52.944;9.098;2023-03-13T14:57:27;16.70;66.10
21108;DHT22;10712;52.944;9.098;2023-03-13T14:59:55;16.60;66.30
21108;DHT22;10712;52.944;9.098;2023-03-13T15:08:33;16.50;66.70
21108;DHT22;10712;52.944;9.098;2023-03-13T15:11:01;16.40;66.80
21108;DHT22;10712;52.944;9.098;2023-03-13T15:15:59;16.40;66.70
21108;DHT22;10712;52.944;9.098;2023-03-13T15:18:31;16.40;66.00
21108;DHT22;10712;52.944;9.098;2023-03-13T15:21:19;16.30;66.60
21108;DHT22;10712;52.944;9.098;2023-03-13T15:23:50;16.30;66.50
21108;DHT22;10712;52.944;9.098;2023-03-13T15:26:26;16.30;66.20
21108;DHT22;10712;52.944;9.098;2023-03-13T15:28:52;16.40;66.10
21108;DHT22;10712;52.944;9.098;2023-03-13T15:31:20;16.40;65.90
21108;DHT22;10712;52.944;9.098;2023-03-13T15:33:53;16.40;65.70
21108;DHT22;10712;52.944;9.098;2023-03-13T15:36:26;16.40;66.00
21108;DHT22;10712;52.944;9.098;2023-03-13T15:38:53;16.40;65.70
21108;DHT22;10712;52.944;9.098;2023-03-13T15:41:20;16.30;66.50
21108;DHT22;10712;52.944;9.098;2023-03-13T15:43:47;16.30;66.40
21108;DHT22;10712;52.944;9.098;2023-03-13T15:46:17;16.20;67.00
21108;DHT22;10712;52.944;9.098;2023-03-13T15:48:45;16.10;67.20
21108;DHT22;10712;52.944;9.098;2023-03-13T15:51:13;16.00;67.60
21108;DHT22;10712;52.944;9.098;2023-03-13T15:53:41;16.00;67.90
21108;DHT22;10712;52.944;9.098;2023-03-13T15:56:14;15.90;68.10
21108;DHT22;10712;52.944;9.098;2023-03-13T15:58:43;16.00;67.40
21108;DHT22;10712;52.944;9.098;2023-03-13T16:01:13;16.00;67.50
21108;DHT22;10712;52.944;9.098;2023-03-13T16:03:40;16.00;67.00
21108;DHT22;10712;52.944;9.098;2023-03-13T16:06:21;16.00;67.10
21108;DHT22;10712;52.944;9.098;2023-03-13T16:08:55;16.00;67.50
21108;DHT22;10712;52.944;9.098;2023-03-13T16:11:25;15.90;67.20
21108;DHT22;10712;52.944;9.098;2023-03-13T16:13:51;15.90;67.30
21108;DHT22;10712;52.944;9.098;2023-03-13T16:18:45;15.90;66.20
21108;DHT22;10712;52.944;9.098;2023-03-13T16:21:20;15.80;66.60
21108;DHT22;10712;52.944;9.098;2023-03-13T16:23:51;15.80;66.50
21108;DHT22;10712;52.944;9.098;2023-03-13T16:26:20;15.80;66.10
21108;DHT22;10712;52.944;9.098;2023-03-13T16:28:49;15.80;66.00
21108;DHT22;10712;52.944;9.098;2023-03-13T16:31:23;15.80;66.20
21108;DHT22;10712;52.944;9.098;2023-03-13T16:33:53;15.80;66.10
21108;DHT22;10712;52.944;9.098;2023-03-13T16:36:25;15.80;65.60
21108;DHT22;10712;52.944;9.098;2023-03-13T16:39:00;15.80;64.90
21108;DHT22;10712;52.944;9.098;2023-03-13T16:41:33;15.80;64.90
21108;DHT22;10712;52.944;9.098;2023-03-13T16:44:00;15.80;65.20
21108;DHT22;10712;52.944;9.098;2023-03-13T16:49:06;15.60;65.90
21108;DHT22;10712;52.944;9.098;2023-03-13T16:51:37;15.50;66.40
21108;DHT22;10712;52.944;9.098;2023-03-13T16:54:03;15.50;66.20
21108;DHT22;10712;52.944;9.098;2023-03-13T16:56:36;15.40;66.50
21108;DHT22;10712;52.944;9.098;2023-03-13T16:59:10;15.30;66.40
21108;DHT22;10712;52.944;9.098;2023-03-13T17:01:38;15.30;66.80
21108;DHT22;10712;52.944;9.098;2023-03-13T17:04:04;15.20;66.70
21108;DHT22;10712;52.944;9.098;2023-03-13T17:06:35;15.20;66.80
21108;DHT22;10712;52.944;9.098;2023-03-13T17:09:05;15.20;66.90
21108;DHT22;10712;52.944;9.098;2023-03-13T17:11:36;15.10;67.00
21108;DHT22;10712;52.944;9.098;2023-03-13T17:14:02;15.10;67.40
21108;DHT22;10712;52.944;9.098;2023-03-13T17:16:30;15.00;67.90
21108;DHT22;10712;52.944;9.098;2023-03-13T17:18:59;14.90;68.20
21108;DHT22;10712;52.944;9.098;2023-03-13T17:21:27;14.90;68.20
21108;DHT22;10712;52.944;9.098;2023-03-13T17:23:56;14.80;68.70
21108;DHT22;10712;52.944;9.098;2023-03-13T17:26:27;14.70;68.70
21108;DHT22;10712;52.944;9.098;2023-03-13T17:28:55;14.70;68.90
21108;DHT22;10712;52.944;9.098;2023-03-13T17:31:23;14.70;68.90
21108;DHT22;10712;52.944;9.098;2023-03-13T17:33:50;14.60;68.90
21108;DHT22;10712;52.944;9.098;2023-03-13T17:36:22;14.60;69.00
21108;DHT22;10712;52.944;9.098;2023-03-13T17:38:55;14.60;69.00
21108;DHT22;10712;52.944;9.098;2023-03-13T17:41:25;14.50;69.20
21108;DHT22;10712;52.944;9.098;2023-03-13T17:43:57;14.50;69.30
21108;DHT22;10712;52.944;9.098;2023-03-13T17:46:28;14.40;69.50
21108;DHT22;10712;52.944;9.098;2023-03-13T17:49:01;14.30;69.70
21108;DHT22;10712;52.944;9.098;2023-03-13T17:51:30;14.20;70.10
21108;DHT22;10712;52.944;9.098;2023-03-13T17:53:58;14.10;70.60
21108;DHT22;10712;52.944;9.098;2023-03-13T17:58:54;14.00;71.10
21108;DHT22;10712;52.944;9.098;2023-03-13T18:01:24;13.90;71.30
21108;DHT22;10712;52.944;9.098;2023-03-13T18:03:51;13.90;71.60
21108;DHT22;10712;52.944;9.098;2023-03-13T18:06:25;13.80;71.70
21108;DHT22;10712;52.944;9.098;2023-03-13T18:08:58;13.80;71.70
21108;DHT22;10712;52.944;9.098;2023-03-13T18:11:34;13.80;71.90
21108;DHT22;10712;52.944;9.098;2023-03-13T18:14:01;13.70;72.00
21108;DHT22;10712;52.944;9.098;2023-03-13T18:16:37;13.70;72.20
21108;DHT22;10712;52.944;9.098;2023-03-13T18:19:20;13.70;72.20
21108;DHT22;10712;52.944;9.098;2023-03-13T18:21:49;13.60;72.40
21108;DHT22;10712;52.944;9.098;2023-03-13T18:24:17;13.60;72.70
21108;DHT22;10712;52.944;9.098;2023-03-13T18:26:44;13.50;73.00
21108;DHT22;10712;52.944;9.098;2023-03-13T18:29:17;13.50;73.10